Time;durP1;ratioP1;P1;durP2;ratioP2;P2;SDS_P1;SDS_P2;PMS_P1;PMS_P2;Temp;Humidity;BMP_temperature;BMP_pressure;BME280_temperature;BME280_humidity;BME280_pressure;Samples;Min_cycle;Max_cycle;Signal;HPM_P1;HPM_P2
2021/01/24 00:00:03;;;;;;;;;;;;;;;;;;4924287;29;19993;-86
2021/01/24 00:05:13;;;;;;;;;;;;;;;;;;4940510;29;20237;-86
2021/01/24 00:07:39;;;;;;;;;;;;;;;;;;4941427;29;19907;-86
2021/01/24 00:10:05;;;;;;;;;;;;;;;;;;4944817;29;19907;-87
2021/01/24 00:12:31;;;;;;;;;;;;;;;;;;4944642;29;19906;-86
2021/01/24 00:14:57;;;;;;;;;;;;;;;;;;4927620;29;19907;-87
2021/01/24 00:17:32;;;;;;;;;;;;;;;;;;4927471;29;19984;-87
2021/01/24 00:19:59;;;;;;;;;;;;;;;;;;4944213;29;19917;-86
2021/01/24 00:22:25;;;;;;;;;;;;;;;;;;4944225;29;19948;-86
2021/01/24 00:24:51;;;;;;;;;;;;;;;;;;4944212;29;19907;-86
2021/01/24 00:27:17;;;;;;;;;;;;;;;;;;4927478;29;19923;-87
2021/01/24 00:29:43;;;;;;;;;;;;;;;;;;4927235;29;19957;-86
2021/01/24 00:32:09;;;;;;;;;;;;;;;;;;4944515;29;19907;-84
2021/01/24 00:34:35;;;;;;;;;;;;;;;;;;4927442;29;19907;-85
2021/01/24 00:37:01;;;;;;;;;;;;;;;;;;4927172;29;19917;-85
2021/01/24 00:39:27;;;;;;;;;;;;;;;;;;4927210;29;19907;-86
2021/01/24 00:41:53;;;;;;;;;;;;;;;;;;4944036;29;19946;-87
2021/01/24 00:44:19;;;;;;;;;;;;;;;;;;4943742;29;19911;-86
2021/01/24 00:46:45;;;;;;;;;;;;;;;;;;4927593;29;19993;-87
2021/01/24 00:49:29;;;;;;;;;;;;;;;;;;4943944;29;19953;-86
2021/01/24 00:51:55;;;;;;;;;;;;;;;;;;4943913;29;19907;-86
2021/01/24 00:54:21;;;;;;;;;;;;;;;;;;4943922;29;19969;-88
2021/01/24 00:56:47;;;;;;;;;;;;;;;;;;4943560;29;20190;-88
2021/01/24 00:59:13;;;;;;;;;;;;;;;;;;4943490;29;19914;-86
2021/01/24 01:01:39;;;;;;;;;;;;;;;;;;4943445;29;19911;-86
2021/01/24 01:06:49;;;;;;;;;;;;;;;;;;4943439;29;20016;-87
2021/01/24 01:09:15;;;;;;;;;;;;;;;;;;4943308;29;19907;-87
2021/01/24 01:11:41;;;;;;;;;;;;;;;;;;4926890;29;20018;-88
2021/01/24 01:14:07;;;;;;;;;;;;;;;;;;4943292;29;19914;-87
2021/01/24 01:16:33;;;;;;;;;;;;;;;;;;4943459;29;19910;-87
2021/01/24 01:18:59;;;;;;;;;;;;;;;;;;4926422;29;20289;-87
2021/01/24 01:21:25;;;;;;;;;;;;;;;;;;4943170;29;19946;-86
2021/01/24 01:23:51;;;;;;;;;;;;;;;;;;4943051;29;19913;-86
2021/01/24 01:26:17;;;;;;;;;;;;;;;;;;4942749;29;19928;-87
2021/01/24 01:28:43;;;;;;;;;;;;;;;;;;4943249;29;19907;-88
2021/01/24 01:31:09;;;;;;;;;;;;;;;;;;4942959;29;19913;-87
2021/01/24 01:33:35;;;;;;;;;;;;;;;;;;4943179;29;19907;-86
2021/01/24 01:36:01;;;;;;;;;;;;;;;;;;4942825;29;19914;-88
2021/01/24 01:38:27;;;;;;;;;;;;;;;;;;4943318;29;19915;-88
2021/01/24 01:40:53;;;;;;;;;;;;;;;;;;4943036;29;19977;-88
2021/01/24 01:43:18;;;;;;;;;;;;;;;;;;4926610;29;20265;-88
2021/01/24 01:45:44;;;;;;;;;;;;;;;;;;4925848;29;20320;-88
2021/01/24 01:53:40;;;;;;;;;;;;;;;;;;4942566;29;19949;-87
2021/01/24 01:56:05;;;;;;;;;;;;;;;;;;4942602;29;19997;-87
2021/01/24 01:58:31;;;;;;;;;;;;;;;;;;4942467;29;19907;-89
2021/01/24 02:00:57;;;;;;;;;;;;;;;;;;4926080;29;19906;-90
2021/01/24 02:06:08;;;;;;;;;;;;;;;;;;4942453;29;19949;-90
2021/01/24 02:08:34;;;;;;;;;;;;;;;;;;4925457;29;19907;-89
2021/01/24 02:11:00;;;;;;;;;;;;;;;;;;4942646;29;20282;-90
2021/01/24 02:13:26;;;;;;;;;;;;;;;;;;4942536;29;19914;-90
2021/01/24 02:15:52;;;;;;;;;;;;;;;;;;4942804;29;19942;-89
2021/01/24 02:23:47;;;;;;;;;;;;;;;;;;4942035;29;19914;-87
2021/01/24 02:26:13;;;;;;;;;;;;;;;;;;4941908;29;19918;-87
2021/01/24 02:28:39;;;;;;;;;;;;;;;;;;4925323;29;20205;-85
2021/01/24 02:31:05;;;;;;;;;;;;;;;;;;4941308;29;20308;-87
2021/01/24 02:33:31;;;;;;;;;;;;;;;;;;4942036;29;19993;-87
2021/01/24 02:35:57;;;;;;;;;;;;;;;;;;4941980;29;20329;-87
2021/01/24 02:38:23;;;;;;;;;;;;;;;;;;4925028;29;19922;-87
2021/01/24 02:40:49;;;;;;;;;;;;;;;;;;4925093;29;19919;-87
2021/01/24 02:43:15;;;;;;;;;;;;;;;;;;4925119;29;19915;-86
2021/01/24 02:45:40;;;;;;;;;;;;;;;;;;4941900;29;20277;-87
2021/01/24 02:48:06;;;;;;;;;;;;;;;;;;4941565;29;19934;-87
2021/01/24 02:50:32;;;;;;;;;;;;;;;;;;4924770;29;19907;-87
2021/01/24 02:52:58;;;;;;;;;;;;;;;;;;4941684;29;19934;-87
2021/01/24 02:55:24;;;;;;;;;;;;;;;;;;4924558;29;20198;-88
2021/01/24 02:57:50;;;;;;;;;;;;;;;;;;4941291;29;20289;-83
2021/01/24 03:00:16;;;;;;;;;;;;;;;;;;4924444;29;19906;-89
2021/01/24 03:02:42;;;;;;;;;;;;;;;;;;4924914;29;20214;-89
2021/01/24 03:10:37;;;;;;;;;;;;;;;;;;4941317;29;20316;-86
2021/01/24 03:13:03;;;;;;;;;;;;;;;;;;4940817;29;19907;-85
2021/01/24 03:15:29;;;;;;;;;;;;;;;;;;4923942;29;19910;-85
2021/01/24 03:17:55;;;;;;;;;;;;;;;;;;4924174;29;19910;-85
2021/01/24 03:20:21;;;;;;;;;;;;;;;;;;4940720;29;19910;-87
2021/01/24 03:22:47;;;;;;;;;;;;;;;;;;4940776;29;19907;-86
2021/01/24 03:25:13;;;;;;;;;;;;;;;;;;4940739;29;19906;-86
2021/01/24 03:27:39;;;;;;;;;;;;;;;;;;4923628;29;20024;-85
2021/01/24 03:30:05;;;;;;;;;;;;;;;;;;4940826;29;19968;-86
2021/01/24 03:32:31;;;;;;;;;;;;;;;;;;4940690;29;19906;-85
2021/01/24 03:34:57;;;;;;;;;;;;;;;;;;4923628;29;20343;-87
2021/01/24 03:37:22;;;;;;;;;;;;;;;;;;4940798;29;19911;-88
2021/01/24 03:39:48;;;;;;;;;;;;;;;;;;4941077;29;19969;-87
2021/01/24 03:42:14;;;;;;;;;;;;;;;;;;4940985;29;20254;-87
2021/01/24 03:44:40;;;;;;;;;;;;;;;;;;4940786;29;19906;-87
2021/01/24 03:47:06;;;;;;;;;;;;;;;;;;4940757;29;20005;-87
2021/01/24 03:52:17;;;;;;;;;;;;;;;;;;4940601;29;19953;-86
2021/01/24 03:54:43;;;;;;;;;;;;;;;;;;4924042;29;20290;-87
2021/01/24 03:57:09;;;;;;;;;;;;;;;;;;4940529;29;19930;-86
2021/01/24 03:59:35;;;;;;;;;;;;;;;;;;4940810;29;19946;-86
2021/01/24 04:02:01;;;;;;;;;;;;;;;;;;4923806;29;19910;-87
2021/01/24 04:07:29;;;;;;;;;;;;;;;;;;4940697;29;19914;-86
2021/01/24 04:09:55;;;;;;;;;;;;;;;;;;4940486;29;20008;-86
2021/01/24 04:12:21;;;;;;;;;;;;;;;;;;4940425;29;20013;-87
2021/01/24 04:14:47;;;;;;;;;;;;;;;;;;4940779;29;19907;-87
2021/01/24 04:17:13;;;;;;;;;;;;;;;;;;4940544;29;19967;-87
2021/01/24 04:19:57;;;;;;;;;;;;;;;;;;4940691;29;19981;-86
2021/01/24 04:22:23;;;;;;;;;;;;;;;;;;4940345;29;19911;-86
2021/01/24 04:24:49;;;;;;;;;;;;;;;;;;4923696;29;19958;-86
2021/01/24 04:27:15;;;;;;;;;;;;;;;;;;4940567;29;19923;-86
2021/01/24 04:29:41;;;;;;;;;;;;;;;;;;4940669;29;19911;-88
2021/01/24 04:32:07;;;;;;;;;;;;;;;;;;4923867;29;19946;-88
2021/01/24 04:40:02;;;;;;;;;;;;;;;;;;4940372;29;19914;-86
2021/01/24 04:42:28;;;;;;;;;;;;;;;;;;4923417;29;20217;-86
2021/01/24 04:44:54;;;;;;;;;;;;;;;;;;4940157;29;20321;-89
2021/01/24 04:47:20;;;;;;;;;;;;;;;;;;4940208;29;19907;-88
2021/01/24 04:52:30;;;;;;;;;;;;;;;;;;4940208;29;20201;-88
2021/01/24 04:54:56;;;;;;;;;;;;;;;;;;4925676;29;20238;-88
2021/01/24 04:57:22;;;;;;;;;;;;;;;;;;4943431;29;19919;-89
2021/01/24 04:59:48;;;;;;;;;;;;;;;;;;4926698;29;20293;-86
2021/01/24 05:02:14;;;;;;;;;;;;;;;;;;4926676;29;19913;-86
2021/01/24 05:04:58;;;;;;;;;;;;;;;;;;4943442;29;19907;-86
2021/01/24 05:07:24;;;;;;;;;;;;;;;;;;4943492;29;19949;-86
2021/01/24 05:09:50;;;;;;;;;;;;;;;;;;4943462;29;20005;-86
2021/01/24 05:12:16;;;;;;;;;;;;;;;;;;4943486;29;19942;-86
2021/01/24 05:14:41;;;;;;;;;;;;;;;;;;4943535;29;19985;-86
2021/01/24 05:17:07;;;;;;;;;;;;;;;;;;4926341;29;20182;-86
2021/01/24 05:25:03;;;;;;;;;;;;;;;;;;4943109;29;19914;-86
2021/01/24 05:27:29;;;;;;;;;;;;;;;;;;4942807;29;20237;-88
2021/01/24 05:29:54;;;;;;;;;;;;;;;;;;4943094;29;20320;-89
2021/01/24 05:32:20;;;;;;;;;;;;;;;;;;4943150;29;20329;-89
2021/01/24 05:37:31;;;;;;;;;;;;;;;;;;4942889;29;19917;-89
2021/01/24 05:39:57;;;;;;;;;;;;;;;;;;4943106;29;19907;-90
2021/01/24 05:42:23;;;;;;;;;;;;;;;;;;4942900;29;19907;-87
2021/01/24 05:44:49;;;;;;;;;;;;;;;;;;4925927;29;19917;-88
2021/01/24 05:47:15;;;;;;;;;;;;;;;;;;4942638;29;19946;-88
2021/01/24 05:49:59;;;;;;;;;;;;;;;;;;4942632;29;19936;-86
2021/01/24 05:52:25;;;;;;;;;;;;;;;;;;4942984;29;19906;-86
2021/01/24 05:54:51;;;;;;;;;;;;;;;;;;4942948;29;20258;-86
2021/01/24 05:57:17;;;;;;;;;;;;;;;;;;4925474;29;20017;-86
2021/01/24 05:59:43;;;;;;;;;;;;;;;;;;4942441;29;19907;-88
2021/01/24 06:02:09;;;;;;;;;;;;;;;;;;4942329;29;19910;-87
2021/01/24 06:07:20;;;;;;;;;;;;;;;;;;4941919;29;19974;-88
2021/01/24 06:09:46;;;;;;;;;;;;;;;;;;4942306;29;20221;-88
2021/01/24 06:12:12;;;;;;;;;;;;;;;;;;4942229;29;19958;-88
2021/01/24 06:14:38;;;;;;;;;;;;;;;;;;4925620;29;19907;-87
2021/01/24 06:17:04;;;;;;;;;;;;;;;;;;4942528;29;19911;-88
2021/01/24 06:22:33;;;;;;;;;;;;;;;;;;4942093;29;19914;-88
2021/01/24 06:24:58;;;;;;;;;;;;;;;;;;4942040;29;20340;-86
2021/01/24 06:27:24;;;;;;;;;;;;;;;;;;4942088;29;19923;-88
2021/01/24 06:29:50;;;;;;;;;;;;;;;;;;4942134;29;19902;-88
2021/01/24 06:32:16;;;;;;;;;;;;;;;;;;4942273;29;19906;-88
2021/01/24 06:34:42;;;;;;;;;;;;;;;;;;4941912;29;19950;-88
2021/01/24 06:37:08;;;;;;;;;;;;;;;;;;4942137;29;19971;-87
2021/01/24 06:39:34;;;;;;;;;;;;;;;;;;4941944;29;19938;-86
2021/01/24 06:42:00;;;;;;;;;;;;;;;;;;4941922;29;19907;-87
2021/01/24 06:44:26;;;;;;;;;;;;;;;;;;4941930;29;20214;-86
2021/01/24 06:46:52;;;;;;;;;;;;;;;;;;4941912;29;20298;-87
2021/01/24 06:49:18;;;;;;;;;;;;;;;;;;4924830;29;20365;-87
2021/01/24 06:51:44;;;;;;;;;;;;;;;;;;4941531;29;19952;-87
2021/01/24 06:54:10;;;;;;;;;;;;;;;;;;4941445;29;19907;-87
2021/01/24 06:56:36;;;;;;;;;;;;;;;;;;4924742;29;19918;-88
2021/01/24 06:59:02;;;;;;;;;;;;;;;;;;4941825;29;19907;-89
2021/01/24 07:01:31;;;;;;;;;;;;;;;;;;4941410;29;20290;-87
2021/01/24 07:06:41;;;;;;;;;;;;;;;;;;4941324;29;20018;-87
2021/01/24 07:09:07;;;;;;;;;;;;;;;;;;4941503;29;20293;-87
2021/01/24 07:11:33;;;;;;;;;;;;;;;;;;4941222;29;19906;-89
2021/01/24 07:14:00;;;;;;;;;;;;;;;;;;4941509;29;19914;-89
2021/01/24 07:16:26;;;;;;;;;;;;;;;;;;4941076;29;19921;-88
2021/01/24 07:19:06;;;;;;;;;;;;;;;;;;4941488;29;19906;-87
2021/01/24 07:21:32;;;;;;;;;;;;;;;;;;4941329;29;19935;-88
2021/01/24 07:23:57;;;;;;;;;;;;;;;;;;4940923;29;19914;-86
2021/01/24 07:26:23;;;;;;;;;;;;;;;;;;4941041;29;20268;-86
2021/01/24 07:28:49;;;;;;;;;;;;;;;;;;4941116;29;20286;-86
2021/01/24 07:31:15;;;;;;;;;;;;;;;;;;4941149;29;20297;-89
2021/01/24 07:33:41;;;;;;;;;;;;;;;;;;4924099;29;20276;-88
2021/01/24 07:38:52;;;;;;;;;;;;;;;;;;4940584;29;19913;-86
2021/01/24 07:41:18;;;;;;;;;;;;;;;;;;4940964;29;19907;-87
2021/01/24 07:43:43;;;;;;;;;;;;;;;;;;4941219;29;19906;-87
2021/01/24 07:46:09;;;;;;;;;;;;;;;;;;4940840;29;20013;-89
2021/01/24 07:48:35;;;;;;;;;;;;;;;;;;4924198;29;19914;-90
2021/01/24 07:51:01;;;;;;;;;;;;;;;;;;4924255;29;19907;-88
2021/01/24 07:53:27;;;;;;;;;;;;;;;;;;4940822;29;20290;-88
2021/01/24 07:55:53;;;;;;;;;;;;;;;;;;4923969;29;20317;-86
2021/01/24 07:58:19;;;;;;;;;;;;;;;;;;4940360;29;19921;-84
2021/01/24 08:00:45;;;;;;;;;;;;;;;;;;4923808;29;20001;-87
2021/01/24 08:03:11;;;;;;;;;;;;;;;;;;4923871;29;19950;-86
2021/01/24 08:05:37;;;;;;;;;;;;;;;;;;4923767;29;19911;-87
2021/01/24 08:08:03;;;;;;;;;;;;;;;;;;4940803;29;19954;-87
2021/01/24 08:10:29;;;;;;;;;;;;;;;;;;4940764;29;20281;-87
2021/01/24 08:12:55;;;;;;;;;;;;;;;;;;4923734;29;19946;-87
2021/01/24 08:15:20;;;;;;;;;;;;;;;;;;4940549;29;19954;-87
2021/01/24 08:17:46;;;;;;;;;;;;;;;;;;4940680;29;19911;-86
2021/01/24 08:25:41;;;;;;;;;;;;;;;;;;4940395;29;20402;-87
2021/01/24 08:28:07;;;;;;;;;;;;;;;;;;4923431;29;19922;-85
2021/01/24 08:30:33;;;;;;;;;;;;;;;;;;4926895;29;19914;-84
2021/01/24 08:32:59;;;;;;;;;;;;;;;;;;4927076;29;19918;-84
2021/01/24 08:35:43;;;;;;;;;;;;;;;;;;4945134;29;19910;-85
2021/01/24 08:38:10;;;;;;;;;;;;;;;;;;4927051;29;19921;-85
2021/01/24 08:40:36;;;;;;;;;;;;;;;;;;4944098;29;19929;-84
2021/01/24 08:43:02;;;;;;;;;;;;;;;;;;4926948;29;20289;-84
2021/01/24 08:45:28;;;;;;;;;;;;;;;;;;4943893;29;19906;-85
2021/01/24 08:47:54;;;;;;;;;;;;;;;;;;4944011;29;19930;-85
2021/01/24 08:50:20;;;;;;;;;;;;;;;;;;4943368;29;20233;-83
2021/01/24 08:52:46;;;;;;;;;;;;;;;;;;4943462;29;19913;-93
2021/01/24 08:55:12;;;;;;;;;;;;;;;;;;4943107;29;19910;-79
2021/01/24 08:57:38;;;;;;;;;;;;;;;;;;4943028;29;19925;-79
2021/01/24 09:00:04;;;;;;;;;;;;;;;;;;4943032;29;19913;-77
2021/01/24 09:02:30;;;;;;;;;;;;;;;;;;4942928;29;20009;-78
2021/01/24 09:04:56;;;;;;;;;;;;;;;;;;4942935;29;19961;-77
2021/01/24 09:07:22;;;;;;;;;;;;;;;;;;4926070;29;19907;-77
2021/01/24 09:09:48;;;;;;;;;;;;;;;;;;4942914;29;20294;-77
2021/01/24 09:12:14;;;;;;;;;;;;;;;;;;4942922;29;20249;-77
2021/01/24 09:14:40;;;;;;;;;;;;;;;;;;4925865;29;19914;-78
2021/01/24 09:17:06;;;;;;;;;;;;;;;;;;4942571;29;19910;-78
2021/01/24 09:19:32;;;;;;;;;;;;;;;;;;4942671;29;19906;-78
2021/01/24 09:21:58;;;;;;;;;;;;;;;;;;4942641;29;20285;-78
2021/01/24 09:24:24;;;;;;;;;;;;;;;;;;4925755;29;20013;-77
2021/01/24 09:26:50;;;;;;;;;;;;;;;;;;4942457;29;20005;-78
2021/01/24 09:29:16;;;;;;;;;;;;;;;;;;4921357;29;19918;-78
2021/01/24 09:31:42;;;;;;;;;;;;;;;;;;4939935;29;20264;-78
2021/01/24 09:34:08;;;;;;;;;;;;;;;;;;4942050;29;19914;-78
2021/01/24 09:36:34;;;;;;;;;;;;;;;;;;4941899;29;19911;-78
2021/01/24 10:11:58;;;;;;;;;;;;;;;;;;4943230;29;19917;-78
2021/01/24 10:14:25;;;;;;;;;;;;;;;;;;4969878;23;19922;-78
2021/01/24 10:16:51;;;;;;;;;;;;;;;;;;4960769;29;19910;-78
2021/01/24 10:19:17;;;;;;;;;;;;;;;;;;4960584;29;19945;-77
2021/01/24 10:21:43;;;;;;;;;;;;;;;;;;4960382;29;19906;-78
2021/01/24 10:24:10;;;;;;;;;;;;;;;;;;4960418;29;19926;-78
2021/01/24 10:26:36;;;;;;;;;;;;;;;;;;4943829;28;20279;-78
2021/01/24 10:29:02;;;;;;;;;;;;;;;;;;4960795;29;19949;-78
2021/01/24 10:31:28;;;;;;;;;;;;;;;;;;4959436;29;19913;-78
2021/01/24 10:33:54;;;;;;;;;;;;;;;;;;4952607;29;19910;-78
2021/01/24 10:36:20;;;;;;;;;;;;;;;;;;4958089;29;19922;-78
2021/01/24 10:38:49;;;;;;;;;;;;;;;;;;4931943;29;19910;-77
2021/01/24 10:41:14;;;;;;;;;;;;;;;;;;4941281;29;20004;-78
2021/01/24 10:43:40;;;;;;;;;;;;;;;;;;4943740;29;19918;-78
2021/01/24 10:46:06;;;;;;;;;;;;;;;;;;4960506;29;19942;-78
2021/01/24 10:48:32;;;;;;;;;;;;;;;;;;4960337;29;19938;-78
2021/01/24 10:50:58;;;;;;;;;;;;;;;;;;4960024;28;19906;-78
2021/01/24 10:53:24;;;;;;;;;;;;;;;;;;4959883;29;19929;-78
2021/01/24 10:55:50;;;;;;;;;;;;;;;;;;4959867;29;20296;-77
2021/01/24 10:58:16;;;;;;;;;;;;;;;;;;4959198;29;19922;-78
2021/01/24 11:00:42;;;;;;;;;;;;;;;;;;4943160;29;19907;-78
2021/01/24 11:03:08;;;;;;;;;;;;;;;;;;4960049;29;19913;-78
2021/01/24 11:05:34;;;;;;;;;;;;;;;;;;4942804;29;20009;-78
2021/01/24 11:08:00;;;;;;;;;;;;;;;;;;4942383;29;20272;-79
2021/01/24 11:10:26;;;;;;;;;;;;;;;;;;4959824;29;19989;-79
2021/01/24 11:12:53;;;;;;;;;;;;;;;;;;4954895;29;19993;-78
2021/01/24 11:15:19;;;;;;;;;;;;;;;;;;4940433;29;19918;-77
2021/01/24 11:17:44;;;;;;;;;;;;;;;;;;4940696;29;19911;-77
2021/01/24 11:20:10;;;;;;;;;;;;;;;;;;4940575;29;19906;-78
2021/01/24 11:22:36;;;;;;;;;;;;;;;;;;4939783;29;20312;-78
2021/01/24 11:25:02;;;;;;;;;;;;;;;;;;4940319;29;19950;-78
2021/01/24 11:27:28;;;;;;;;;;;;;;;;;;4940605;29;20688;-78
2021/01/24 11:29:54;;;;;;;;;;;;;;;;;;4940613;29;19934;-78
2021/01/24 11:32:20;;;;;;;;;;;;;;;;;;4940599;29;20213;-78
2021/01/24 11:34:46;;;;;;;;;;;;;;;;;;4940461;29;20204;-78
2021/01/24 11:37:12;;;;;;;;;;;;;;;;;;4940158;29;19917;-78
2021/01/24 11:39:38;;;;;;;;;;;;;;;;;;4940166;29;19906;-78
2021/01/24 11:42:04;;;;;;;;;;;;;;;;;;4940269;29;19907;-77
2021/01/24 11:44:30;;;;;;;;;;;;;;;;;;4923321;29;19914;-78
2021/01/24 11:46:56;;;;;;;;;;;;;;;;;;4923301;29;20224;-78
2021/01/24 11:49:22;;;;;;;;;;;;;;;;;;4940529;29;19907;-78
2021/01/24 11:51:48;;;;;;;;;;;;;;;;;;4940107;29;19907;-78
2021/01/24 11:54:14;;;;;;;;;;;;;;;;;;4923351;29;19907;-78
2021/01/24 11:56:39;;;;;;;;;;;;;;;;;;4940174;29;20232;-79
2021/01/24 11:59:05;;;;;;;;;;;;;;;;;;4940222;29;19906;-78
2021/01/24 12:01:31;;;;;;;;;;;;;;;;;;4940189;29;19902;-78
2021/01/24 12:03:59;;;;;;;;;;;;;;;;;;4941513;29;19907;-78
2021/01/24 12:06:25;;;;;;;;;;;;;;;;;;4944207;29;19902;-78
2021/01/24 12:08:50;;;;;;;;;;;;;;;;;;4927333;29;20416;-79
2021/01/24 12:11:16;;;;;;;;;;;;;;;;;;4943887;29;19946;-78
2021/01/24 12:13:42;;;;;;;;;;;;;;;;;;4943645;29;19954;-78
2021/01/24 12:16:08;;;;;;;;;;;;;;;;;;4943989;29;19993;-78
2021/01/24 12:18:34;;;;;;;;;;;;;;;;;;4944001;29;20273;-78
2021/01/24 12:21:00;;;;;;;;;;;;;;;;;;4943811;29;20001;-78
2021/01/24 12:23:26;;;;;;;;;;;;;;;;;;4943749;29;19907;-78
2021/01/24 12:25:52;;;;;;;;;;;;;;;;;;4943858;29;20249;-78
2021/01/24 12:28:18;;;;;;;;;;;;;;;;;;4943908;29;20264;-78
2021/01/24 12:30:44;;;;;;;;;;;;;;;;;;4943787;29;19907;-79
2021/01/24 12:33:11;;;;;;;;;;;;;;;;;;4943489;29;20255;-78
2021/01/24 12:35:37;;;;;;;;;;;;;;;;;;4943655;29;20029;-78
2021/01/24 12:38:03;;;;;;;;;;;;;;;;;;4943486;29;19915;-78
2021/01/24 12:40:29;;;;;;;;;;;;;;;;;;4943466;29;20304;-78
2021/01/24 12:42:55;;;;;;;;;;;;;;;;;;4943143;29;19922;-78
2021/01/24 12:45:21;;;;;;;;;;;;;;;;;;4943574;29;19910;-78
2021/01/24 12:47:46;;;;;;;;;;;;;;;;;;4926516;29;20380;-78
2021/01/24 12:50:12;;;;;;;;;;;;;;;;;;4943289;29;19982;-78
2021/01/24 12:52:38;;;;;;;;;;;;;;;;;;4943304;29;19926;-78
2021/01/24 12:55:04;;;;;;;;;;;;;;;;;;4943144;29;19914;-79
2021/01/24 12:57:30;;;;;;;;;;;;;;;;;;4943236;29;19918;-78
2021/01/24 12:59:56;;;;;;;;;;;;;;;;;;4943034;29;19913;-78
2021/01/24 13:02:22;;;;;;;;;;;;;;;;;;4943270;29;19993;-78
2021/01/24 13:04:48;;;;;;;;;;;;;;;;;;4943238;29;19989;-78
2021/01/24 13:07:14;;;;;;;;;;;;;;;;;;4943109;29;20368;-78
2021/01/24 13:09:40;;;;;;;;;;;;;;;;;;4942839;29;19946;-78
2021/01/24 13:12:06;;;;;;;;;;;;;;;;;;4942717;29;19907;-78
2021/01/24 13:14:32;;;;;;;;;;;;;;;;;;4941896;29;19918;-78
2021/01/24 13:17:00;;;;;;;;;;;;;;;;;;4942946;29;19915;-78
2021/01/24 13:19:26;;;;;;;;;;;;;;;;;;4942942;29;19907;-79
2021/01/24 13:21:52;;;;;;;;;;;;;;;;;;4942670;29;19907;-78
2021/01/24 13:24:17;;;;;;;;;;;;;;;;;;4942758;29;19953;-78
2021/01/24 13:26:44;;;;;;;;;;;;;;;;;;4942832;29;19907;-78
2021/01/24 13:29:10;;;;;;;;;;;;;;;;;;4942408;29;19913;-78
2021/01/24 13:31:35;;;;;;;;;;;;;;;;;;4942732;29;19906;-78
2021/01/24 13:34:01;;;;;;;;;;;;;;;;;;4942644;29;19907;-78
2021/01/24 13:36:27;;;;;;;;;;;;;;;;;;4942283;29;19906;-79
2021/01/24 13:38:53;;;;;;;;;;;;;;;;;;4942234;29;19922;-78
2021/01/24 13:41:19;;;;;;;;;;;;;;;;;;4942313;29;19907;-79
2021/01/24 13:43:45;;;;;;;;;;;;;;;;;;4942062;29;19911;-78
2021/01/24 13:46:11;;;;;;;;;;;;;;;;;;4942180;29;20293;-78
2021/01/24 13:48:37;;;;;;;;;;;;;;;;;;4942475;29;19915;-78
2021/01/24 13:51:03;;;;;;;;;;;;;;;;;;4942220;29;20224;-78
2021/01/24 13:53:30;;;;;;;;;;;;;;;;;;4942172;29;19907;-78
2021/01/24 13:55:56;;;;;;;;;;;;;;;;;;4941740;29;19930;-78
2021/01/24 13:58:22;;;;;;;;;;;;;;;;;;4942741;29;20284;-78
2021/01/24 14:00:48;;;;;;;;;;;;;;;;;;4941854;29;19906;-77
2021/01/24 14:03:14;;;;;;;;;;;;;;;;;;4942125;29;19914;-78
2021/01/24 14:05:40;;;;;;;;;;;;;;;;;;4941669;29;20244;-78
2021/01/24 14:08:06;;;;;;;;;;;;;;;;;;4941698;29;19934;-78
2021/01/24 14:10:32;;;;;;;;;;;;;;;;;;4924949;29;19906;-78
2021/01/24 14:12:58;;;;;;;;;;;;;;;;;;4924728;29;19915;-77
2021/01/24 14:15:24;;;;;;;;;;;;;;;;;;4924872;29;19950;-78
2021/01/24 14:17:50;;;;;;;;;;;;;;;;;;4941621;29;19914;-78
2021/01/24 14:20:15;;;;;;;;;;;;;;;;;;4941926;29;20293;-78
2021/01/24 14:22:41;;;;;;;;;;;;;;;;;;4941739;29;20308;-78
2021/01/24 14:25:07;;;;;;;;;;;;;;;;;;4941726;29;19907;-78
2021/01/24 14:27:33;;;;;;;;;;;;;;;;;;4940608;29;19914;-77
2021/01/24 14:29:59;;;;;;;;;;;;;;;;;;4941457;29;19938;-77
2021/01/24 14:32:25;;;;;;;;;;;;;;;;;;4941480;29;19911;-77
2021/01/24 14:34:51;;;;;;;;;;;;;;;;;;4941277;29;19994;-78
2021/01/24 14:37:17;;;;;;;;;;;;;;;;;;4941444;29;19911;-80
2021/01/24 14:39:43;;;;;;;;;;;;;;;;;;4941291;29;20289;-77
2021/01/24 14:42:09;;;;;;;;;;;;;;;;;;4941169;29;20001;-78
2021/01/24 14:44:35;;;;;;;;;;;;;;;;;;4941026;29;20014;-79
2021/01/24 14:47:01;;;;;;;;;;;;;;;;;;4941162;29;19954;-79
2021/01/24 14:49:27;;;;;;;;;;;;;;;;;;4941139;29;19906;-79
2021/01/24 14:51:53;;;;;;;;;;;;;;;;;;4940982;29;19907;-79
2021/01/24 14:54:19;;;;;;;;;;;;;;;;;;4940873;29;19922;-78
2021/01/24 14:56:45;;;;;;;;;;;;;;;;;;4924006;29;20002;-79
2021/01/24 14:59:11;;;;;;;;;;;;;;;;;;4940978;29;19910;-79
2021/01/24 15:01:37;;;;;;;;;;;;;;;;;;4940843;29;19915;-79
2021/01/24 15:04:03;;;;;;;;;;;;;;;;;;4938451;29;20316;-85
2021/01/24 15:11:58;;;;;;;;;;;;;;;;;;4947999;29;19930;-85
2021/01/24 15:14:24;;;;;;;;;;;;;;;;;;4940857;29;19922;-85
2021/01/24 15:16:50;;;;;;;;;;;;;;;;;;4924610;29;20376;-85
2021/01/24 15:19:16;;;;;;;;;;;;;;;;;;4941289;29;20285;-86
2021/01/24 15:21:42;;;;;;;;;;;;;;;;;;4941431;29;19914;-86
2021/01/24 15:24:08;;;;;;;;;;;;;;;;;;4941358;29;19907;-84
2021/01/24 15:26:34;;;;;;;;;;;;;;;;;;4941108;29;19926;-85
2021/01/24 15:29:00;;;;;;;;;;;;;;;;;;4924378;29;19996;-85
2021/01/24 15:31:26;;;;;;;;;;;;;;;;;;4941119;29;19974;-84
2021/01/24 15:33:53;;;;;;;;;;;;;;;;;;4941928;29;19913;-83
2021/01/24 15:36:19;;;;;;;;;;;;;;;;;;4923975;29;19913;-83
2021/01/24 15:38:45;;;;;;;;;;;;;;;;;;4923617;29;19911;-84
2021/01/24 15:41:11;;;;;;;;;;;;;;;;;;4940844;29;20186;-84
2021/01/24 15:43:37;;;;;;;;;;;;;;;;;;4940785;29;19921;-84
2021/01/24 15:46:03;;;;;;;;;;;;;;;;;;4941168;29;19985;-85
2021/01/24 15:48:29;;;;;;;;;;;;;;;;;;4941149;29;19914;-84
2021/01/24 15:50:55;;;;;;;;;;;;;;;;;;4941140;29;19914;-85
2021/01/24 15:53:21;;;;;;;;;;;;;;;;;;4924237;29;20224;-83
2021/01/24 15:55:47;;;;;;;;;;;;;;;;;;4940707;29;19913;-85
2021/01/24 15:58:13;;;;;;;;;;;;;;;;;;4941285;29;19915;-85
2021/01/24 16:00:39;;;;;;;;;;;;;;;;;;4941076;29;19918;-84
2021/01/24 16:03:05;;;;;;;;;;;;;;;;;;4941092;29;20236;-83
2021/01/24 16:05:43;;;;;;;;;;;;;;;;;;4940589;29;19935;-85
2021/01/24 16:08:09;;;;;;;;;;;;;;;;;;4940801;29;19954;-84
2021/01/24 16:10:35;;;;;;;;;;;;;;;;;;4940614;29;19938;-85
2021/01/24 16:13:01;;;;;;;;;;;;;;;;;;4920511;29;19973;-85
2021/01/24 16:15:27;;;;;;;;;;;;;;;;;;4920547;29;19918;-85
2021/01/24 16:17:53;;;;;;;;;;;;;;;;;;4921424;29;20014;-85
2021/01/24 16:20:19;;;;;;;;;;;;;;;;;;4921576;29;19950;-84
2021/01/24 16:22:45;;;;;;;;;;;;;;;;;;4920560;29;19909;-85
2021/01/24 16:25:12;;;;;;;;;;;;;;;;;;4921569;29;19931;-85
2021/01/24 16:27:38;;;;;;;;;;;;;;;;;;4921515;29;19914;-84
2021/01/24 16:30:04;;;;;;;;;;;;;;;;;;4921508;29;19907;-84
2021/01/24 16:32:30;;;;;;;;;;;;;;;;;;4921577;29;20313;-84
2021/01/24 16:34:56;;;;;;;;;;;;;;;;;;4921324;29;19915;-84
2021/01/24 16:40:06;;;;;;;;;;;;;;;;;;4921474;29;20368;-84
2021/01/24 16:42:32;;;;;;;;;;;;;;;;;;4921262;29;20337;-84
2021/01/24 16:44:58;;;;;;;;;;;;;;;;;;4920687;29;19911;-84
2021/01/24 16:47:26;;;;;;;;;;;;;;;;;;4921513;29;19914;-85
2021/01/24 16:49:54;;;;;;;;;;;;;;;;;;4922012;29;19942;-83
2021/01/24 16:52:20;;;;;;;;;;;;;;;;;;4924546;29;19911;-83
2021/01/24 16:54:46;;;;;;;;;;;;;;;;;;4924467;29;19907;-83
2021/01/24 16:57:12;;;;;;;;;;;;;;;;;;4923141;29;19915;-85
2021/01/24 16:59:38;;;;;;;;;;;;;;;;;;4923587;29;19907;-84
2021/01/24 17:02:04;;;;;;;;;;;;;;;;;;4924451;29;20072;-84
2021/01/24 17:04:29;;;;;;;;;;;;;;;;;;4923691;29;19914;-84
2021/01/24 17:06:55;;;;;;;;;;;;;;;;;;4923989;29;19907;-85
2021/01/24 17:09:21;;;;;;;;;;;;;;;;;;4924175;29;19943;-84
2021/01/24 17:11:47;;;;;;;;;;;;;;;;;;4923940;29;19950;-84
2021/01/24 17:14:13;;;;;;;;;;;;;;;;;;4922708;29;19998;-83
2021/01/24 17:16:39;;;;;;;;;;;;;;;;;;4922947;29;19911;-84
2021/01/24 17:19:05;;;;;;;;;;;;;;;;;;4924166;29;20242;-83
2021/01/24 17:21:31;;;;;;;;;;;;;;;;;;4924195;29;20006;-85
2021/01/24 17:23:57;;;;;;;;;;;;;;;;;;4923083;29;19931;-85
2021/01/24 17:26:23;;;;;;;;;;;;;;;;;;4922961;29;19907;-85
2021/01/24 17:28:49;;;;;;;;;;;;;;;;;;4923846;29;19913;-82
2021/01/24 17:31:15;;;;;;;;;;;;;;;;;;4923631;29;19908;-83
2021/01/24 17:33:41;;;;;;;;;;;;;;;;;;4922812;29;19955;-83
2021/01/24 17:36:07;;;;;;;;;;;;;;;;;;4923407;29;19907;-83
2021/01/24 17:38:32;;;;;;;;;;;;;;;;;;4923501;29;19911;-83
2021/01/24 17:40:58;;;;;;;;;;;;;;;;;;4924075;29;19907;-87
2021/01/24 17:43:24;;;;;;;;;;;;;;;;;;4924073;29;19911;-87
2021/01/24 17:45:51;;;;;;;;;;;;;;;;;;4924269;29;19915;-88
2021/01/24 17:48:18;;;;;;;;;;;;;;;;;;4923921;29;19914;-87
2021/01/24 17:50:44;;;;;;;;;;;;;;;;;;4924133;29;19907;-88
2021/01/24 17:53:10;;;;;;;;;;;;;;;;;;4922738;29;19907;-87
2021/01/24 17:55:36;;;;;;;;;;;;;;;;;;4923917;29;20013;-88
2021/01/24 17:58:02;;;;;;;;;;;;;;;;;;4923643;29;19915;-88
2021/01/24 18:00:27;;;;;;;;;;;;;;;;;;4923658;29;19911;-87
2021/01/24 18:02:53;;;;;;;;;;;;;;;;;;4923558;29;19907;-87
2021/01/24 18:05:19;;;;;;;;;;;;;;;;;;4923472;29;20249;-88
2021/01/24 18:08:04;;;;;;;;;;;;;;;;;;4923517;29;19907;-87
2021/01/24 18:10:30;;;;;;;;;;;;;;;;;;4922369;29;19908;-87
2021/01/24 18:12:56;;;;;;;;;;;;;;;;;;4922401;29;19915;-87
2021/01/24 18:15:22;;;;;;;;;;;;;;;;;;4923735;29;19911;-87
2021/01/24 18:17:48;;;;;;;;;;;;;;;;;;4922567;29;20332;-89
2021/01/24 18:20:14;;;;;;;;;;;;;;;;;;4922600;29;19907;-87
2021/01/24 18:22:40;;;;;;;;;;;;;;;;;;4923086;29;20212;-86